Time,TemperatureF,DewpointF,PressureIn,WindDirection,WindDirectionDegrees,WindSpeedMPH,WindSpeedGustMPH,Humidity,HourlyPrecipIn,Conditions,Clouds,dailyrainin,SoftwareType,DateUTC
2013-09-25 00:01:00,55.4,52.5,29.79,East,86,0.0,1.0,90,0.00,,,0.00,Wunderground v.1.15,2013-09-25 05:01:00,
2013-09-25 00:06:00,55.3,52.7,29.80,East,86,0.0,1.0,91,0.00,,,0.00,Wunderground v.1.15,2013-09-25 05:06:00,
2013-09-25 00:11:00,55.2,52.6,29.80,East,86,0.0,1.0,91,0.00,,,0.00,Wunderground v.1.15,2013-09-25 05:11:00,
2013-09-25 00:16:00,55.1,52.5,29.79,East,86,0.0,1.0,91,0.00,,,0.00,Wunderground v.1.15,2013-09-25 05:16:00,
2013-09-25 00:21:00,55.1,52.5,29.79,East,86,0.0,1.0,91,0.00,,,0.00,Wunderground v.1.15,2013-09-25 05:21:00,
2013-09-25 00:26:00,55.0,52.4,29.79,East,86,0.0,1.0,91,0.00,,,0.00,Wunderground v.1.15,2013-09-25 05:26:00,
2013-09-25 00:31:00,54.9,52.3,29.79,East,86,0.0,1.0,91,0.00,,,0.00,Wunderground v.1.15,2013-09-25 05:31:00,
2013-09-25 00:37:00,54.8,52.2,29.79,East,86,0.0,1.0,91,0.00,,,0.00,Wunderground v.1.15,2013-09-25 05:37:00,
2013-09-25 00:42:00,54.7,52.1,29.79,East,86,0.0,1.0,91,0.00,,,0.00,Wunderground v.1.15,2013-09-25 05:42:00,
2013-09-25 00:47:00,54.6,52.0,29.79,East,86,0.0,1.0,91,0.00,,,0.00,Wunderground v.1.15,2013-09-25 05:47:00,
2013-09-25 00:52:00,54.6,52.0,29.79,East,86,0.0,1.0,91,0.00,,,0.00,Wunderground v.1.15,2013-09-25 05:52:00,
2013-09-25 00:57:00,54.6,52.3,29.79,East,86,0.0,1.0,92,0.00,,,0.00,Wunderground v.1.15,2013-09-25 05:57:00,
2013-09-25 01:02:00,54.5,52.2,29.79,East,86,0.0,1.0,92,0.00,,,0.00,Wunderground v.1.15,2013-09-25 06:02:00,
2013-09-25 01:08:00,54.5,52.2,29.79,East,86,0.0,1.0,92,0.00,,,0.00,Wunderground v.1.15,2013-09-25 06:08:00,
2013-09-25 01:13:00,54.4,52.1,29.79,East,86,0.0,1.0,92,0.00,,,0.00,Wunderground v.1.15,2013-09-25 06:13:00,
2013-09-25 01:18:00,54.4,52.1,29.79,East,86,0.0,1.0,92,0.00,,,0.00,Wunderground v.1.15,2013-09-25 06:18:00,
2013-09-25 01:23:00,54.4,52.1,29.79,East,86,0.0,1.0,92,0.00,,,0.00,Wunderground v.1.15,2013-09-25 06:23:00,
2013-09-25 01:28:00,54.4,52.1,29.79,ESE,110,0.0,1.0,92,0.00,,,0.00,Wunderground v.1.15,2013-09-25 06:28:00,
2013-09-25 01:34:00,54.5,52.2,29.80,East,101,0.0,1.0,92,0.00,,,0.00,Wunderground v.1.15,2013-09-25 06:34:00,
2013-09-25 01:39:00,54.5,52.2,29.80,East,101,0.0,1.0,92,0.00,,,0.00,Wunderground v.1.15,2013-09-25 06:39:00,
2013-09-25 01:44:00,54.5,52.2,29.80,East,101,0.0,1.0,92,0.00,,,0.00,Wunderground v.1.15,2013-09-25 06:44:00,
2013-09-25 01:49:00,54.5,52.2,29.80,East,100,0.0,1.0,92,0.00,,,0.00,Wunderground v.1.15,2013-09-25 06:49:00,
2013-09-25 01:54:00,54.4,52.1,29.80,East,100,0.0,1.0,92,0.00,,,0.00,Wunderground v.1.15,2013-09-25 06:54:00,
2013-09-25 01:59:00,54.3,52.0,29.80,East,100,0.0,1.0,92,0.00,,,0.00,Wunderground v.1.15,2013-09-25 06:59:00,
2013-09-25 02:05:00,54.2,51.9,29.80,East,100,0.0,1.0,92,0.00,,,0.00,Wunderground v.1.15,2013-09-25 07:05:00,
2013-09-25 02:10:00,54.2,51.9,29.80,East,101,0.0,1.0,92,0.00,,,0.00,Wunderground v.1.15,2013-09-25 07:10:00,
2013-09-25 02:15:00,54.1,51.8,29.80,East,101,0.0,1.0,92,0.00,,,0.00,Wunderground v.1.15,2013-09-25 07:15:00,
2013-09-25 02:20:00,54.1,51.8,29.80,East,100,0.0,1.0,92,0.00,,,0.00,Wunderground v.1.15,2013-09-25 07:20:00,
2013-09-25 02:25:00,54.1,51.8,29.80,East,100,0.0,1.0,92,0.00,,,0.00,Wunderground v.1.15,2013-09-25 07:25:00,
2013-09-25 02:31:00,54.1,51.8,29.80,East,101,0.0,1.0,92,0.00,,,0.00,Wunderground v.1.15,2013-09-25 07:31:00,
2013-09-25 02:36:00,54.1,51.8,29.80,East,101,0.0,1.0,92,0.00,,,0.00,Wunderground v.1.15,2013-09-25 07:36:00,
2013-09-25 02:41:00,54.1,51.8,29.80,East,100,0.0,1.0,92,0.00,,,0.00,Wunderground v.1.15,2013-09-25 07:41:00,
2013-09-25 02:46:00,54.1,52.1,29.80,East,100,0.0,1.0,93,0.00,,,0.00,Wunderground v.1.15,2013-09-25 07:46:00,
2013-09-25 02:51:00,54.1,52.1,29.80,East,101,0.0,1.0,93,0.00,,,0.00,Wunderground v.1.15,2013-09-25 07:51:00,
2013-09-25 02:56:00,54.0,52.0,29.80,East,100,0.0,1.0,93,0.00,,,0.00,Wunderground v.1.15,2013-09-25 07:56:00,
2013-09-25 03:01:00,53.9,51.9,29.80,East,101,0.0,1.0,93,0.00,,,0.00,Wunderground v.1.15,2013-09-25 08:01:00,
2013-09-25 03:06:00,53.9,51.9,29.80,East,100,0.0,1.0,93,0.00,,,0.00,Wunderground v.1.15,2013-09-25 08:06:00,
2013-09-25 03:11:00,53.9,51.9,29.80,East,100,0.0,1.0,93,0.00,,,0.00,Wunderground v.1.15,2013-09-25 08:11:00,
2013-09-25 03:16:00,53.9,51.9,29.80,East,100,0.0,1.0,93,0.00,,,0.00,Wunderground v.1.15,2013-09-25 08:16:00,
2013-09-25 03:22:00,53.8,51.8,29.80,East,100,0.0,1.0,93,0.00,,,0.00,Wunderground v.1.15,2013-09-25 08:22:00,
2013-09-25 03:27:00,53.8,51.8,29.80,East,89,0.0,1.0,93,0.00,,,0.00,Wunderground v.1.15,2013-09-25 08:27:00,
2013-09-25 03:32:00,53.7,51.7,29.80,East,89,0.0,1.0,93,0.00,,,0.00,Wunderground v.1.15,2013-09-25 08:32:00,
2013-09-25 03:37:00,53.8,51.8,29.80,ESE,115,0.0,1.0,93,0.00,,,0.00,Wunderground v.1.15,2013-09-25 08:37:00,
2013-09-25 03:42:00,53.7,51.7,29.80,ESE,113,0.0,1.0,93,0.00,,,0.00,Wunderground v.1.15,2013-09-25 08:42:00,
2013-09-25 03:48:00,53.7,51.7,29.81,ESE,108,0.0,1.0,93,0.00,,,0.00,Wunderground v.1.15,2013-09-25 08:48:00,
2013-09-25 03:53:00,53.7,51.7,29.81,ESE,108,0.0,1.0,93,0.00,,,0.00,Wunderground v.1.15,2013-09-25 08:53:00,
2013-09-25 03:58:00,53.6,51.6,29.81,ESE,108,0.0,1.0,93,0.00,,,0.00,Wunderground v.1.15,2013-09-25 08:58:00,
2013-09-25 04:03:00,53.5,51.5,29.81,ESE,108,0.0,1.0,93,0.00,,,0.00,Wunderground v.1.15,2013-09-25 09:03:00,
2013-09-25 04:08:00,53.4,51.4,29.81,ESE,110,0.0,1.0,93,0.00,,,0.00,Wunderground v.1.15,2013-09-25 09:08:00,
2013-09-25 04:13:00,53.4,51.4,29.81,ESE,110,0.0,1.0,93,0.00,,,0.00,Wunderground v.1.15,2013-09-25 09:13:00,
2013-09-25 04:19:00,53.3,51.3,29.81,East,96,0.0,1.0,93,0.00,,,0.00,Wunderground v.1.15,2013-09-25 09:19:00,
2013-09-25 04:24:00,53.1,51.1,29.81,East,96,0.0,1.0,93,0.00,,,0.00,Wunderground v.1.15,2013-09-25 09:24:00,
2013-09-25 04:29:00,53.2,51.2,29.81,ENE,57,0.0,1.0,93,0.00,,,0.00,Wunderground v.1.15,2013-09-25 09:29:00,
2013-09-25 04:34:00,53.3,51.3,29.81,ESE,113,0.0,1.0,93,0.00,,,0.00,Wunderground v.1.15,2013-09-25 09:34:00,
2013-09-25 04:39:00,53.2,51.2,29.81,ESE,108,0.0,1.0,93,0.00,,,0.00,Wunderground v.1.15,2013-09-25 09:39:00,
2013-09-25 04:45:00,53.2,51.2,29.81,East,96,0.0,1.0,93,0.00,,,0.00,Wunderground v.1.15,2013-09-25 09:45:00,
2013-09-25 04:50:00,53.2,51.2,29.81,NE,49,0.0,1.0,93,0.00,,,0.00,Wunderground v.1.15,2013-09-25 09:50:00,
2013-09-25 04:55:00,53.2,51.2,29.81,ESE,110,1.0,1.0,93,0.00,,,0.00,Wunderground v.1.15,2013-09-25 09:55:00,
2013-09-25 05:00:00,53.2,51.2,29.81,ESE,108,0.0,1.0,93,0.00,,,0.00,Wunderground v.1.15,2013-09-25 10:00:00,
2013-09-25 05:06:00,53.2,51.2,29.81,East,87,0.0,1.0,93,0.00,,,0.00,Wunderground v.1.15,2013-09-25 10:06:00,
2013-09-25 05:11:00,53.2,51.2,29.81,NNE,28,0.0,1.0,93,0.00,,,0.00,Wunderground v.1.15,2013-09-25 10:11:00,
2013-09-25 05:16:00,53.2,51.2,29.81,East,91,0.0,1.0,93,0.00,,,0.00,Wunderground v.1.15,2013-09-25 10:16:00,
2013-09-25 05:21:00,53.1,51.1,29.81,ESE,111,0.0,1.0,93,0.00,,,0.00,Wunderground v.1.15,2013-09-25 10:21:00,
2013-09-25 05:26:00,53.2,51.2,29.81,East,101,1.0,2.0,93,0.00,,,0.00,Wunderground v.1.15,2013-09-25 10:26:00,
2013-09-25 05:31:00,53.2,51.2,29.81,East,84,1.0,1.0,93,0.00,,,0.00,Wunderground v.1.15,2013-09-25 10:31:00,
2013-09-25 05:37:00,53.2,51.2,29.81,East,99,0.0,2.0,93,0.00,,,0.00,Wunderground v.1.15,2013-09-25 10:37:00,
2013-09-25 05:42:00,53.2,51.2,29.81,ESE,103,1.0,1.0,93,0.00,,,0.00,Wunderground v.1.15,2013-09-25 10:42:00,
2013-09-25 05:47:00,53.1,50.8,29.81,North,349,0.0,1.0,92,0.00,,,0.00,Wunderground v.1.15,2013-09-25 10:47:00,
2013-09-25 05:52:00,53.1,51.1,29.81,North,1,0.0,1.0,93,0.00,,,0.00,Wunderground v.1.15,2013-09-25 10:52:00,
2013-09-25 05:57:00,53.2,51.2,29.81,ESE,104,0.0,1.0,93,0.00,,,0.00,Wunderground v.1.15,2013-09-25 10:57:00,
2013-09-25 06:03:00,53.1,51.1,29.82,East,86,1.0,1.0,93,0.00,,,0.00,Wunderground v.1.15,2013-09-25 11:03:00,
2013-09-25 06:08:00,52.9,50.6,29.81,East,86,0.0,1.0,92,0.00,,,0.00,Wunderground v.1.15,2013-09-25 11:08:00,
2013-09-25 06:13:00,52.7,50.7,29.82,East,79,0.0,1.0,93,0.00,,,0.00,Wunderground v.1.15,2013-09-25 11:13:00,
2013-09-25 06:18:00,52.6,50.6,29.82,NE,50,1.0,1.0,93,0.00,,,0.00,Wunderground v.1.15,2013-09-25 11:18:00,
2013-09-25 06:23:00,52.6,50.6,29.81,ENE,66,1.0,1.0,93,0.00,,,0.00,Wunderground v.1.15,2013-09-25 11:23:00,
2013-09-25 06:29:00,52.5,50.5,29.81,ENE,68,1.0,2.0,93,0.00,,,0.00,Wunderground v.1.15,2013-09-25 11:29:00,
2013-09-25 06:34:00,52.4,50.4,29.81,ENE,70,1.0,1.0,93,0.00,,,0.00,Wunderground v.1.15,2013-09-25 11:34:00,
2013-09-25 06:39:00,52.2,50.2,29.81,East,82,0.0,1.0,93,0.00,,,0.00,Wunderground v.1.15,2013-09-25 11:39:00,
2013-09-25 06:44:00,52.1,50.1,29.81,NE,34,1.0,2.0,93,0.00,,,0.00,Wunderground v.1.15,2013-09-25 11:44:00,
2013-09-25 06:49:00,52.0,50.0,29.81,ENE,68,1.0,2.0,93,0.00,,,0.00,Wunderground v.1.15,2013-09-25 11:49:00,
2013-09-25 06:55:00,51.9,49.9,29.81,East,91,0.0,1.0,93,0.00,,,0.00,Wunderground v.1.15,2013-09-25 11:55:00,
2013-09-25 07:00:00,51.8,49.8,29.81,East,82,0.0,1.0,93,0.00,,,0.00,Wunderground v.1.15,2013-09-25 12:00:00,
2013-09-25 07:05:00,51.6,49.6,29.81,East,82,0.0,1.0,93,0.00,,,0.00,Wunderground v.1.15,2013-09-25 12:05:00,
2013-09-25 07:10:00,51.4,49.4,29.81,East,82,0.0,1.0,93,0.00,,,0.00,Wunderground v.1.15,2013-09-25 12:10:00,
2013-09-25 07:15:00,51.5,49.5,29.81,ESE,104,0.0,2.0,93,0.00,,,0.00,Wunderground v.1.15,2013-09-25 12:15:00,
2013-09-25 07:21:00,51.4,49.4,29.82,East,90,0.0,1.0,93,0.00,,,0.00,Wunderground v.1.15,2013-09-25 12:21:00,
2013-09-25 07:26:00,51.3,49.3,29.82,East,84,0.0,1.0,93,0.00,,,0.00,Wunderground v.1.15,2013-09-25 12:26:00,
2013-09-25 07:31:00,51.3,49.3,29.82,East,88,0.0,1.0,93,0.00,,,0.00,Wunderground v.1.15,2013-09-25 12:31:00,
2013-09-25 07:36:00,51.4,49.4,29.82,East,96,0.0,1.0,93,0.00,,,0.00,Wunderground v.1.15,2013-09-25 12:36:00,
2013-09-25 07:41:00,51.4,49.4,29.82,East,91,0.0,1.0,93,0.00,,,0.00,Wunderground v.1.15,2013-09-25 12:41:00,
2013-09-25 07:47:00,51.4,49.4,29.82,East,92,0.0,1.0,93,0.00,,,0.00,Wunderground v.1.15,2013-09-25 12:47:00,
2013-09-25 07:52:00,51.5,49.5,29.82,East,84,0.0,1.0,93,0.00,,,0.00,Wunderground v.1.15,2013-09-25 12:52:00,
2013-09-25 07:57:00,51.5,49.5,29.82,East,84,0.0,1.0,93,0.00,,,0.00,Wunderground v.1.15,2013-09-25 12:57:00,
2013-09-25 08:02:00,51.6,49.6,29.82,East,84,0.0,1.0,93,0.00,,,0.00,Wunderground v.1.15,2013-09-25 13:02:00,
2013-09-25 08:07:00,51.7,49.7,29.82,East,84,0.0,1.0,93,0.00,,,0.00,Wunderground v.1.15,2013-09-25 13:07:00,
2013-09-25 08:12:00,51.8,49.8,29.82,NNE,32,0.0,1.0,93,0.00,,,0.00,Wunderground v.1.15,2013-09-25 13:12:00,
2013-09-25 08:18:00,51.8,49.8,29.82,NNE,33,0.0,1.0,93,0.00,,,0.00,Wunderground v.1.15,2013-09-25 13:18:00,
2013-09-25 08:23:00,52.0,50.0,29.82,NW,314,0.0,1.0,93,0.00,,,0.00,Wunderground v.1.15,2013-09-25 13:23:00,
2013-09-25 08:28:00,52.2,50.2,29.82,NW,314,0.0,1.0,93,0.00,,,0.00,Wunderground v.1.15,2013-09-25 13:28:00,
2013-09-25 08:33:00,52.4,50.4,29.82,NW,313,0.0,1.0,93,0.00,,,0.00,Wunderground v.1.15,2013-09-25 13:33:00,
2013-09-25 08:39:00,52.6,50.6,29.82,NW,314,0.0,1.0,93,0.00,,,0.00,Wunderground v.1.15,2013-09-25 13:39:00,
2013-09-25 08:44:00,52.7,50.7,29.82,NW,314,0.0,1.0,93,0.00,,,0.00,Wunderground v.1.15,2013-09-25 13:44:00,
2013-09-25 08:49:00,52.8,50.8,29.82,NW,314,0.0,1.0,93,0.00,,,0.00,Wunderground v.1.15,2013-09-25 13:49:00,
2013-09-25 08:54:00,53.0,51.0,29.83,NW,314,0.0,1.0,93,0.00,,,0.00,Wunderground v.1.15,2013-09-25 13:54:00,
2013-09-25 08:59:00,53.2,51.2,29.83,NW,313,0.0,1.0,93,0.00,,,0.00,Wunderground v.1.15,2013-09-25 13:59:00,
2013-09-25 09:05:00,53.4,51.4,29.83,NW,314,0.0,1.0,93,0.00,,,0.00,Wunderground v.1.15,2013-09-25 14:05:00,
2013-09-25 09:10:00,53.6,51.6,29.83,NW,314,0.0,1.0,93,0.00,,,0.00,Wunderground v.1.15,2013-09-25 14:10:00,
2013-09-25 09:15:00,53.9,51.9,29.83,NW,314,0.0,1.0,93,0.00,,,0.00,Wunderground v.1.15,2013-09-25 14:15:00,
2013-09-25 09:20:00,54.1,52.1,29.83,NW,313,0.0,1.0,93,0.00,,,0.00,Wunderground v.1.15,2013-09-25 14:20:00,
2013-09-25 09:25:00,54.5,52.5,29.83,NNW,337,0.0,1.0,93,0.00,,,0.00,Wunderground v.1.15,2013-09-25 14:25:00,
2013-09-25 09:30:00,55.3,53.3,29.83,NW,314,0.0,1.0,93,0.00,,,0.00,Wunderground v.1.15,2013-09-25 14:30:00,
2013-09-25 09:35:00,56.2,54.2,29.83,North,358,0.0,1.0,93,0.00,,,0.00,Wunderground v.1.15,2013-09-25 14:35:00,
2013-09-25 09:40:00,56.8,54.5,29.83,WNW,283,0.0,1.0,92,0.00,,,0.00,Wunderground v.1.15,2013-09-25 14:40:00,
2013-09-25 09:45:00,57.2,54.6,29.83,WNW,283,0.0,1.0,91,0.00,,,0.00,Wunderground v.1.15,2013-09-25 14:45:00,
2013-09-25 09:50:00,57.6,54.7,29.82,WNW,290,0.0,1.0,90,0.00,,,0.00,Wunderground v.1.15,2013-09-25 14:50:00,
2013-09-25 09:56:00,58.0,54.8,29.83,NE,53,0.0,1.0,89,0.00,,,0.00,Wunderground v.1.15,2013-09-25 14:56:00,
2013-09-25 10:01:00,58.8,55.3,29.82,NW,324,0.0,1.0,88,0.00,,,0.00,Wunderground v.1.15,2013-09-25 15:01:00,
2013-09-25 10:06:00,59.5,55.3,29.82,NNW,340,0.0,1.0,86,0.00,,,0.00,Wunderground v.1.15,2013-09-25 15:06:00,
2013-09-25 10:11:00,60.0,55.5,29.82,NW,314,0.0,1.0,85,0.00,,,0.00,Wunderground v.1.15,2013-09-25 15:11:00,
2013-09-25 10:16:00,60.3,55.4,29.82,NW,314,0.0,1.0,84,0.00,,,0.00,Wunderground v.1.15,2013-09-25 15:16:00,
2013-09-25 10:22:00,60.7,56.2,29.82,North,360,0.0,1.0,85,0.00,,,0.00,Wunderground v.1.15,2013-09-25 15:22:00,
2013-09-25 10:27:00,61.3,56.1,29.82,WNW,285,0.0,1.0,83,0.00,,,0.00,Wunderground v.1.15,2013-09-25 15:27:00,
2013-09-25 10:32:00,61.7,55.8,29.82,NNE,12,1.0,2.0,81,0.00,,,0.00,Wunderground v.1.15,2013-09-25 15:32:00,
2013-09-25 10:37:00,62.2,56.3,29.82,North,358,0.0,2.0,81,0.00,,,0.00,Wunderground v.1.15,2013-09-25 15:37:00,
2013-09-25 10:42:00,62.6,56.3,29.82,WNW,300,0.0,1.0,80,0.00,,,0.00,Wunderground v.1.15,2013-09-25 15:42:00,
2013-09-25 10:48:00,62.9,55.9,29.82,NW,313,0.0,2.0,78,0.00,,,0.00,Wunderground v.1.15,2013-09-25 15:48:00,
2013-09-25 10:53:00,63.3,56.3,29.82,NNW,331,1.0,1.0,78,0.00,,,0.00,Wunderground v.1.15,2013-09-25 15:53:00,
2013-09-25 10:58:00,63.8,56.1,29.82,NNE,27,0.0,1.0,76,0.00,,,0.00,Wunderground v.1.15,2013-09-25 15:58:00,
2013-09-25 11:03:00,64.2,55.7,29.82,NW,307,1.0,3.0,74,0.00,,,0.00,Wunderground v.1.15,2013-09-25 16:03:00,
2013-09-25 11:08:00,64.5,55.3,29.82,NNW,330,1.0,3.0,72,0.00,,,0.00,Wunderground v.1.15,2013-09-25 16:08:00,
2013-09-25 11:13:00,65.1,55.8,29.83,WNW,290,1.0,1.0,72,0.00,,,0.00,Wunderground v.1.15,2013-09-25 16:13:00,
2013-09-25 11:19:00,65.5,57.0,29.82,ENE,65,1.0,2.0,74,0.00,,,0.00,Wunderground v.1.15,2013-09-25 16:19:00,
2013-09-25 11:24:00,65.8,56.1,29.82,North,11,1.0,2.0,71,0.00,,,0.00,Wunderground v.1.15,2013-09-25 16:24:00,
2013-09-25 11:29:00,66.1,56.4,29.82,NE,56,1.0,2.0,71,0.00,,,0.00,Wunderground v.1.15,2013-09-25 16:29:00,
2013-09-25 11:34:00,66.3,55.8,29.82,North,10,2.0,2.0,69,0.00,,,0.00,Wunderground v.1.15,2013-09-25 16:34:00,
2013-09-25 11:39:00,66.6,56.5,29.82,NNW,340,2.0,2.0,70,0.00,,,0.00,Wunderground v.1.15,2013-09-25 16:39:00,
2013-09-25 11:45:00,66.9,56.4,29.81,West,280,1.0,3.0,69,0.00,,,0.00,Wunderground v.1.15,2013-09-25 16:45:00,
2013-09-25 11:50:00,67.2,56.7,29.82,WNW,291,1.0,1.0,69,0.00,,,0.00,Wunderground v.1.15,2013-09-25 16:50:00,
2013-09-25 11:55:00,67.5,56.2,29.81,North,359,1.0,3.0,67,0.00,,,0.00,Wunderground v.1.15,2013-09-25 16:55:00,
2013-09-25 12:00:00,67.7,55.9,29.81,West,271,2.0,2.0,66,0.00,,,0.00,Wunderground v.1.15,2013-09-25 17:00:00,
2013-09-25 12:05:00,67.9,55.7,29.81,NE,37,2.0,3.0,65,0.00,,,0.00,Wunderground v.1.15,2013-09-25 17:05:00,
2013-09-25 12:11:00,68.1,56.7,29.81,WNW,286,1.0,3.0,67,0.00,,,0.00,Wunderground v.1.15,2013-09-25 17:11:00,
2013-09-25 12:16:00,68.3,56.5,29.81,East,82,1.0,3.0,66,0.00,,,0.00,Wunderground v.1.15,2013-09-25 17:16:00,
2013-09-25 12:21:00,68.4,56.6,29.80,NNE,18,1.0,1.0,66,0.00,,,0.00,Wunderground v.1.15,2013-09-25 17:21:00,
2013-09-25 12:26:00,68.7,56.5,29.80,WNW,297,1.0,3.0,65,0.00,,,0.00,Wunderground v.1.15,2013-09-25 17:26:00,
2013-09-25 12:31:00,69.0,57.2,29.80,East,86,1.0,1.0,66,0.00,,,0.00,Wunderground v.1.15,2013-09-25 17:31:00,
2013-09-25 12:37:00,69.5,56.3,29.80,NNW,342,2.0,4.0,63,0.00,,,0.00,Wunderground v.1.15,2013-09-25 17:37:00,
2013-09-25 12:42:00,69.5,55.5,29.79,NNE,32,2.0,2.0,61,0.00,,,0.00,Wunderground v.1.15,2013-09-25 17:42:00,
2013-09-25 12:47:00,69.7,56.1,29.79,North,357,2.0,4.0,62,0.00,,,0.00,Wunderground v.1.15,2013-09-25 17:47:00,
2013-09-25 12:52:00,70.1,56.5,29.79,NW,314,2.0,5.0,62,0.00,,,0.00,Wunderground v.1.15,2013-09-25 17:52:00,
2013-09-25 12:57:00,70.2,56.6,29.79,WNW,299,2.0,5.0,62,0.00,,,0.00,Wunderground v.1.15,2013-09-25 17:57:00,
2013-09-25 13:03:00,70.6,56.5,29.79,WSW,253,1.0,4.0,61,0.00,,,0.00,Wunderground v.1.15,2013-09-25 18:03:00,
2013-09-25 13:08:00,70.8,57.1,29.79,WSW,243,1.0,4.0,62,0.00,,,0.00,Wunderground v.1.15,2013-09-25 18:08:00,
2013-09-25 13:13:00,71.0,56.9,29.79,NNW,330,1.0,2.0,61,0.00,,,0.00,Wunderground v.1.15,2013-09-25 18:13:00,
2013-09-25 13:18:00,71.0,55.9,29.79,North,9,2.0,3.0,59,0.00,,,0.00,Wunderground v.1.15,2013-09-25 18:18:00,
2013-09-25 13:23:00,71.2,57.1,29.78,WNW,298,2.0,2.0,61,0.00,,,0.00,Wunderground v.1.15,2013-09-25 18:23:00,
2013-09-25 13:28:00,71.6,57.0,29.78,NNE,12,1.0,2.0,60,0.00,,,0.00,Wunderground v.1.15,2013-09-25 18:28:00,
2013-09-25 13:33:00,71.9,56.3,29.78,NW,326,1.0,3.0,58,0.00,,,0.00,Wunderground v.1.15,2013-09-25 18:33:00,
2013-09-25 13:38:00,72.0,55.9,29.78,NW,319,2.0,3.0,57,0.00,,,0.00,Wunderground v.1.15,2013-09-25 18:38:00,
2013-09-25 13:43:00,72.2,56.1,29.78,SSW,201,1.0,2.0,57,0.00,,,0.00,Wunderground v.1.15,2013-09-25 18:43:00,
2013-09-25 13:48:00,72.6,57.4,29.78,NE,42,1.0,2.0,59,0.00,,,0.00,Wunderground v.1.15,2013-09-25 18:48:00,
2013-09-25 13:54:00,72.7,56.6,29.77,NW,321,1.0,3.0,57,0.00,,,0.00,Wunderground v.1.15,2013-09-25 18:54:00,
2013-09-25 13:59:00,72.6,57.4,29.77,West,273,2.0,3.0,59,0.00,,,0.00,Wunderground v.1.15,2013-09-25 18:59:00,
2013-09-25 14:05:00,72.7,56.6,29.76,NW,324,2.0,2.0,57,0.00,,,0.00,Wunderground v.1.15,2013-09-25 19:05:00,
2013-09-25 14:10:00,72.9,56.3,29.76,North,351,1.0,2.0,56,0.00,,,0.00,Wunderground v.1.15,2013-09-25 19:10:00,
2013-09-25 14:15:00,73.1,56.0,29.76,West,262,1.0,2.0,55,0.00,,,0.00,Wunderground v.1.15,2013-09-25 19:15:00,
2013-09-25 14:21:00,73.5,56.3,29.76,NNW,328,1.0,3.0,55,0.00,,,0.00,Wunderground v.1.15,2013-09-25 19:21:00,
2013-09-25 14:26:00,73.7,56.0,29.76,NE,50,1.0,3.0,54,0.00,,,0.00,Wunderground v.1.15,2013-09-25 19:26:00,
2013-09-25 14:31:00,73.6,55.9,29.76,North,7,2.0,2.0,54,0.00,,,0.00,Wunderground v.1.15,2013-09-25 19:31:00,
2013-09-25 14:36:00,73.5,56.3,29.75,NW,316,2.0,2.0,55,0.00,,,0.00,Wunderground v.1.15,2013-09-25 19:36:00,
2013-09-25 14:41:00,73.7,56.5,29.75,NW,308,1.0,1.0,55,0.00,,,0.00,Wunderground v.1.15,2013-09-25 19:41:00,
2013-09-25 14:46:00,74.4,56.7,29.76,WNW,300,1.0,2.0,54,0.00,,,0.00,Wunderground v.1.15,2013-09-25 19:46:00,
2013-09-25 14:51:00,74.5,57.3,29.75,NNW,330,1.0,1.0,55,0.00,,,0.00,Wunderground v.1.15,2013-09-25 19:51:00,
2013-09-25 14:57:00,74.5,56.2,29.75,East,96,1.0,2.0,53,0.00,,,0.00,Wunderground v.1.15,2013-09-25 19:57:00,
2013-09-25 15:02:00,74.7,55.9,29.75,ENE,63,1.0,3.0,52,0.00,,,0.00,Wunderground v.1.15,2013-09-25 20:02:00,
2013-09-25 15:07:00,74.5,56.8,29.75,NNW,338,1.0,3.0,54,0.00,,,0.00,Wunderground v.1.15,2013-09-25 20:07:00,
2013-09-25 15:12:00,74.5,56.8,29.75,ENE,63,1.0,2.0,54,0.00,,,0.00,Wunderground v.1.15,2013-09-25 20:12:00,
2013-09-25 15:17:00,74.5,55.7,29.75,North,358,1.0,4.0,52,0.00,,,0.00,Wunderground v.1.15,2013-09-25 20:17:00,
2013-09-25 15:22:00,74.4,55.6,29.75,WSW,238,1.0,2.0,52,0.00,,,0.00,Wunderground v.1.15,2013-09-25 20:22:00,
2013-09-25 15:27:00,74.8,56.5,29.75,WNW,293,1.0,3.0,53,0.00,,,0.00,Wunderground v.1.15,2013-09-25 20:27:00,
2013-09-25 15:32:00,75.1,55.2,29.74,NNW,345,1.0,2.0,50,0.00,,,0.00,Wunderground v.1.15,2013-09-25 20:32:00,
2013-09-25 15:38:00,75.2,56.4,29.74,NW,314,1.0,2.0,52,0.00,,,0.00,Wunderground v.1.15,2013-09-25 20:38:00,
2013-09-25 15:43:00,74.9,54.4,29.74,NNW,347,1.0,4.0,49,0.00,,,0.00,Wunderground v.1.15,2013-09-25 20:43:00,
2013-09-25 15:48:00,74.8,56.5,29.74,NNE,12,1.0,4.0,53,0.00,,,0.00,Wunderground v.1.15,2013-09-25 20:48:00,
2013-09-25 15:53:00,75.0,56.2,29.74,North,4,1.0,2.0,52,0.00,,,0.00,Wunderground v.1.15,2013-09-25 20:53:00,
2013-09-25 15:58:00,74.9,55.6,29.74,North,349,1.0,3.0,51,0.00,,,0.00,Wunderground v.1.15,2013-09-25 20:58:00,
2013-09-25 16:03:00,74.8,55.5,29.74,NNW,342,1.0,2.0,51,0.00,,,0.00,Wunderground v.1.15,2013-09-25 21:03:00,
2013-09-25 16:09:00,74.4,54.5,29.74,NNW,337,1.0,4.0,50,0.00,,,0.00,Wunderground v.1.15,2013-09-25 21:09:00,
2013-09-25 16:14:00,73.9,54.6,29.74,NNW,344,2.0,3.0,51,0.00,,,0.00,Wunderground v.1.15,2013-09-25 21:14:00,
2013-09-25 16:19:00,73.8,55.1,29.73,West,275,1.0,3.0,52,0.00,,,0.00,Wunderground v.1.15,2013-09-25 21:19:00,
2013-09-25 16:24:00,73.9,55.7,29.73,NNW,329,1.0,2.0,53,0.00,,,0.00,Wunderground v.1.15,2013-09-25 21:24:00,
2013-09-25 16:29:00,73.7,55.0,29.73,NNE,30,1.0,2.0,52,0.00,,,0.00,Wunderground v.1.15,2013-09-25 21:29:00,
2013-09-25 16:35:00,73.5,55.3,29.73,NNW,341,1.0,2.0,53,0.00,,,0.00,Wunderground v.1.15,2013-09-25 21:35:00,
2013-09-25 16:40:00,73.5,55.8,29.73,NE,54,1.0,1.0,54,0.00,,,0.00,Wunderground v.1.15,2013-09-25 21:40:00,
2013-09-25 16:45:00,73.7,55.5,29.73,West,280,1.0,4.0,53,0.00,,,0.00,Wunderground v.1.15,2013-09-25 21:45:00,
2013-09-25 16:50:00,73.7,55.5,29.73,North,349,1.0,2.0,53,0.00,,,0.00,Wunderground v.1.15,2013-09-25 21:50:00,
2013-09-25 16:55:00,73.6,55.9,29.73,NNW,333,1.0,2.0,54,0.00,,,0.00,Wunderground v.1.15,2013-09-25 21:55:00,
2013-09-25 17:01:00,73.9,55.7,29.73,NW,309,1.0,1.0,53,0.00,,,0.00,Wunderground v.1.15,2013-09-25 22:01:00,
2013-09-25 17:06:00,73.9,56.7,29.73,WNW,300,1.0,2.0,55,0.00,,,0.00,Wunderground v.1.15,2013-09-25 22:06:00,
2013-09-25 17:11:00,74.1,56.4,29.73,NW,314,1.0,1.0,54,0.00,,,0.00,Wunderground v.1.15,2013-09-25 22:11:00,
2013-09-25 17:16:00,74.2,56.5,29.73,NW,307,1.0,4.0,54,0.00,,,0.00,Wunderground v.1.15,2013-09-25 22:16:00,
2013-09-25 17:21:00,74.0,56.3,29.73,North,353,1.0,1.0,54,0.00,,,0.00,Wunderground v.1.15,2013-09-25 22:21:00,
2013-09-25 17:27:00,74.1,56.4,29.73,NNW,340,1.0,1.0,54,0.00,,,0.00,Wunderground v.1.15,2013-09-25 22:27:00,
2013-09-25 17:32:00,73.5,55.3,29.73,North,5,1.0,2.0,53,0.00,,,0.00,Wunderground v.1.15,2013-09-25 22:32:00,
2013-09-25 17:37:00,73.1,55.5,29.73,North,360,1.0,2.0,54,0.00,,,0.00,Wunderground v.1.15,2013-09-25 22:37:00,
2013-09-25 17:42:00,72.6,55.5,29.73,NNW,340,1.0,2.0,55,0.00,,,0.00,Wunderground v.1.15,2013-09-25 22:42:00,
2013-09-25 17:47:00,72.3,55.2,29.73,NNE,19,2.0,3.0,55,0.00,,,0.00,Wunderground v.1.15,2013-09-25 22:47:00,
2013-09-25 17:53:00,72.0,55.4,29.73,NNE,20,1.0,1.0,56,0.00,,,0.00,Wunderground v.1.15,2013-09-25 22:53:00,
2013-09-25 17:58:00,71.8,55.3,29.73,NNE,15,1.0,1.0,56,0.00,,,0.00,Wunderground v.1.15,2013-09-25 22:58:00,
2013-09-25 18:03:00,71.8,55.7,29.73,North,359,1.0,2.0,57,0.00,,,0.00,Wunderground v.1.15,2013-09-25 23:03:00,
2013-09-25 18:08:00,71.7,55.7,29.73,North,359,1.0,2.0,57,0.00,,,0.00,Wunderground v.1.15,2013-09-25 23:08:00,
2013-09-25 18:13:00,71.5,55.5,29.73,NNE,20,1.0,3.0,57,0.00,,,0.00,Wunderground v.1.15,2013-09-25 23:13:00,
2013-09-25 18:19:00,71.2,55.2,29.73,North,356,1.0,3.0,57,0.00,,,0.00,Wunderground v.1.15,2013-09-25 23:19:00,
2013-09-25 18:24:00,70.8,55.3,29.73,NNE,23,1.0,3.0,58,0.00,,,0.00,Wunderground v.1.15,2013-09-25 23:24:00,
2013-09-25 18:29:00,70.3,55.3,29.73,North,3,1.0,3.0,59,0.00,,,0.00,Wunderground v.1.15,2013-09-25 23:29:00,
2013-09-25 18:34:00,70.0,55.0,29.73,NW,304,1.0,2.0,59,0.00,,,0.00,Wunderground v.1.15,2013-09-25 23:34:00,
2013-09-25 18:39:00,69.7,54.7,29.72,North,360,1.0,2.0,59,0.00,,,0.00,Wunderground v.1.15,2013-09-25 23:39:00,
2013-09-25 18:45:00,69.2,54.7,29.72,NW,321,1.0,2.0,60,0.00,,,0.00,Wunderground v.1.15,2013-09-25 23:45:00,
2013-09-25 18:50:00,68.7,54.3,29.72,North,4,1.0,1.0,60,0.00,,,0.00,Wunderground v.1.15,2013-09-25 23:50:00,
2013-09-25 18:55:00,68.3,54.3,29.72,NW,322,1.0,1.0,61,0.00,,,0.00,Wunderground v.1.15,2013-09-25 23:55:00,
2013-09-25 19:00:00,67.7,54.2,29.72,NNW,329,0.0,1.0,62,0.00,,,0.00,Wunderground v.1.15,2013-09-26 00:00:00,
2013-09-25 19:05:00,67.1,54.5,29.72,NNE,15,0.0,1.0,64,0.00,,,0.00,Wunderground v.1.15,2013-09-26 00:05:00,
2013-09-25 19:11:00,66.3,54.2,29.72,North,360,0.0,1.0,65,0.00,,,0.00,Wunderground v.1.15,2013-09-26 00:11:00,
2013-09-25 19:16:00,65.8,54.1,29.72,NNW,344,0.0,2.0,66,0.00,,,0.00,Wunderground v.1.15,2013-09-26 00:16:00,
2013-09-25 19:21:00,65.3,54.5,29.72,North,356,1.0,1.0,68,0.00,,,0.00,Wunderground v.1.15,2013-09-26 00:21:00,
2013-09-25 19:26:00,64.9,54.5,29.72,North,355,1.0,2.0,69,0.00,,,0.00,Wunderground v.1.15,2013-09-26 00:26:00,
2013-09-25 19:31:00,64.6,54.2,29.72,NNW,346,1.0,2.0,69,0.00,,,0.00,Wunderground v.1.15,2013-09-26 00:31:00,
2013-09-25 19:37:00,64.3,54.3,29.72,North,356,1.0,3.0,70,0.00,,,0.00,Wunderground v.1.15,2013-09-26 00:37:00,
2013-09-25 19:42:00,64.1,54.1,29.72,NNW,330,1.0,1.0,70,0.00,,,0.00,Wunderground v.1.15,2013-09-26 00:42:00,
2013-09-25 19:47:00,63.9,53.9,29.72,NNE,18,1.0,2.0,70,0.00,,,0.00,Wunderground v.1.15,2013-09-26 00:47:00,
2013-09-25 19:52:00,63.6,53.6,29.72,NNW,331,1.0,1.0,70,0.00,,,0.00,Wunderground v.1.15,2013-09-26 00:52:00,
2013-09-25 19:57:00,63.4,53.4,29.72,NNE,32,1.0,3.0,70,0.00,,,0.00,Wunderground v.1.15,2013-09-26 00:57:00,
2013-09-25 20:03:00,63.2,53.3,29.72,North,351,1.0,3.0,70,0.00,,,0.00,Wunderground v.1.15,2013-09-26 01:03:00,
2013-09-25 20:08:00,63.1,53.2,29.72,NNW,335,2.0,3.0,70,0.00,,,0.00,Wunderground v.1.15,2013-09-26 01:08:00,
2013-09-25 20:13:00,63.0,53.1,29.72,North,8,1.0,2.0,70,0.00,,,0.00,Wunderground v.1.15,2013-09-26 01:13:00,
2013-09-25 20:18:00,62.8,52.9,29.72,NNW,347,1.0,2.0,70,0.00,,,0.00,Wunderground v.1.15,2013-09-26 01:18:00,
2013-09-25 20:23:00,62.6,52.7,29.72,North,1,1.0,2.0,70,0.00,,,0.00,Wunderground v.1.15,2013-09-26 01:23:00,
2013-09-25 20:28:00,62.4,52.5,29.72,North,353,1.0,2.0,70,0.00,,,0.00,Wunderground v.1.15,2013-09-26 01:28:00,
2013-09-25 20:33:00,62.2,52.3,29.73,North,4,1.0,2.0,70,0.00,,,0.00,Wunderground v.1.15,2013-09-26 01:33:00,
2013-09-25 20:38:00,62.1,52.6,29.73,WNW,300,1.0,4.0,71,0.00,,,0.00,Wunderground v.1.15,2013-09-26 01:38:00,
2013-09-25 20:43:00,61.9,52.4,29.73,NNW,347,1.0,2.0,71,0.00,,,0.00,Wunderground v.1.15,2013-09-26 01:43:00,
2013-09-25 20:48:00,61.7,52.6,29.73,North,6,1.0,2.0,72,0.00,,,0.00,Wunderground v.1.15,2013-09-26 01:48:00,
2013-09-25 20:54:00,61.5,52.4,29.73,NNW,346,1.0,2.0,72,0.00,,,0.00,Wunderground v.1.15,2013-09-26 01:54:00,
2013-09-25 20:59:00,61.4,52.3,29.74,NW,324,1.0,2.0,72,0.00,,,0.00,Wunderground v.1.15,2013-09-26 01:59:00,
2013-09-25 21:04:00,61.3,52.6,29.74,NNW,342,1.0,1.0,73,0.00,,,0.00,Wunderground v.1.15,2013-09-26 02:04:00,
2013-09-25 21:09:00,61.1,52.4,29.74,NNW,342,1.0,2.0,73,0.00,,,0.00,Wunderground v.1.15,2013-09-26 02:09:00,
2013-09-25 21:14:00,61.0,52.7,29.74,NE,37,1.0,2.0,74,0.00,,,0.00,Wunderground v.1.15,2013-09-26 02:14:00,
2013-09-25 21:20:00,60.9,52.6,29.74,North,349,1.0,3.0,74,0.00,,,0.00,Wunderground v.1.15,2013-09-26 02:20:00,
2013-09-25 21:25:00,60.7,52.7,29.74,North,356,1.0,3.0,75,0.00,,,0.00,Wunderground v.1.15,2013-09-26 02:25:00,
2013-09-25 21:30:00,60.6,52.6,29.74,North,354,1.0,2.0,75,0.00,,,0.00,Wunderground v.1.15,2013-09-26 02:30:00,
2013-09-25 21:36:00,60.5,52.5,29.74,North,6,1.0,2.0,75,0.00,,,0.00,Wunderground v.1.15,2013-09-26 02:36:00,
2013-09-25 21:41:00,60.4,52.8,29.74,North,358,1.0,1.0,76,0.00,,,0.00,Wunderground v.1.15,2013-09-26 02:41:00,
2013-09-25 21:46:00,60.3,52.7,29.74,NNE,13,1.0,2.0,76,0.00,,,0.00,Wunderground v.1.15,2013-09-26 02:46:00,
2013-09-25 21:51:00,60.2,53.0,29.74,NW,321,1.0,1.0,77,0.00,,,0.00,Wunderground v.1.15,2013-09-26 02:51:00,
2013-09-25 21:56:00,60.1,52.9,29.74,North,355,1.0,2.0,77,0.00,,,0.00,Wunderground v.1.15,2013-09-26 02:56:00,
2013-09-25 22:01:00,60.0,52.8,29.74,NNW,347,1.0,2.0,77,0.00,,,0.00,Wunderground v.1.15,2013-09-26 03:01:00,
2013-09-25 22:06:00,60.0,53.1,29.75,NW,326,1.0,2.0,78,0.00,,,0.00,Wunderground v.1.15,2013-09-26 03:06:00,
2013-09-25 22:12:00,59.9,53.0,29.75,ENE,61,1.0,1.0,78,0.00,,,0.00,Wunderground v.1.15,2013-09-26 03:12:00,
2013-09-25 22:17:00,59.8,52.9,29.75,NNW,342,1.0,1.0,78,0.00,,,0.00,Wunderground v.1.15,2013-09-26 03:17:00,
2013-09-25 22:22:00,59.7,53.2,29.75,NNW,337,1.0,1.0,79,0.00,,,0.00,Wunderground v.1.15,2013-09-26 03:22:00,
2013-09-25 22:27:00,59.6,53.1,29.75,North,359,1.0,2.0,79,0.00,,,0.00,Wunderground v.1.15,2013-09-26 03:27:00,
2013-09-25 22:32:00,59.5,53.0,29.75,WNW,290,1.0,2.0,79,0.00,,,0.00,Wunderground v.1.15,2013-09-26 03:32:00,
2013-09-25 22:38:00,59.4,52.9,29.75,NNW,340,1.0,4.0,79,0.00,,,0.00,Wunderground v.1.15,2013-09-26 03:38:00,
2013-09-25 22:44:00,59.3,53.1,29.75,NNW,346,1.0,3.0,80,0.00,,,0.00,Wunderground v.1.15,2013-09-26 03:44:00,
2013-09-25 22:49:00,59.2,53.0,29.75,NW,316,1.0,3.0,80,0.00,,,0.00,Wunderground v.1.15,2013-09-26 03:49:00,
2013-09-25 22:54:00,59.1,52.9,29.75,NNE,19,1.0,2.0,80,0.00,,,0.00,Wunderground v.1.15,2013-09-26 03:54:00,
2013-09-25 22:59:00,59.0,53.2,29.75,NE,39,1.0,2.0,81,0.00,,,0.00,Wunderground v.1.15,2013-09-26 03:59:00,
2013-09-25 23:02:00,59.0,53.2,29.76,NNW,340,1.0,1.0,81,0.00,,,0.00,Wunderground v.1.15,2013-09-26 04:02:00,
2013-09-25 23:03:00,58.9,53.1,29.76,North,350,1.0,1.0,81,0.00,,,0.00,Wunderground v.1.15,2013-09-26 04:03:00,
2013-09-25 23:04:00,58.9,53.1,29.76,NNW,347,1.0,2.0,81,0.00,,,0.00,Wunderground v.1.15,2013-09-26 04:04:00,
2013-09-25 23:07:00,58.9,53.1,29.76,NW,323,1.0,2.0,81,0.00,,,0.00,Wunderground v.1.15,2013-09-26 04:07:00,
2013-09-25 23:12:00,58.8,53.0,29.76,NNW,342,1.0,1.0,81,0.00,,,0.00,Wunderground v.1.15,2013-09-26 04:12:00,
2013-09-25 23:17:00,58.7,52.9,29.76,NNW,346,1.0,1.0,81,0.00,,,0.00,Wunderground v.1.15,2013-09-26 04:17:00,
2013-09-25 23:22:00,58.6,52.8,29.76,North,354,0.0,1.0,81,0.00,,,0.00,Wunderground v.1.15,2013-09-26 04:22:00,
2013-09-25 23:28:00,58.5,53.0,29.76,NNW,347,1.0,1.0,82,0.00,,,0.00,Wunderground v.1.15,2013-09-26 04:28:00,
2013-09-25 23:33:00,58.5,53.0,29.76,NNW,338,1.0,2.0,82,0.00,,,0.00,Wunderground v.1.15,2013-09-26 04:33:00,
2013-09-25 23:34:00,58.4,52.9,29.76,North,359,1.0,2.0,82,0.00,,,0.00,Wunderground v.1.15,2013-09-26 04:34:00,
2013-09-25 23:39:00,58.4,52.9,29.76,NNW,332,1.0,1.0,82,0.00,,,0.00,Wunderground v.1.15,2013-09-26 04:39:00,
2013-09-25 23:44:00,58.4,52.9,29.76,NNW,344,1.0,1.0,82,0.00,,,0.00,Wunderground v.1.15,2013-09-26 04:44:00,
2013-09-25 23:49:00,58.3,52.8,29.76,NW,326,1.0,1.0,82,0.00,,,0.00,Wunderground v.1.15,2013-09-26 04:49:00,
2013-09-25 23:54:00,58.2,53.1,29.76,North,356,1.0,2.0,83,0.00,,,0.00,Wunderground v.1.15,2013-09-26 04:54:00,